Terminal Aerodrome Forecast
Issued by NWS Twin Cities, MN

Home | Current Version | Previous Version | Text Only | Print | Product List | Glossary On
Versions: 1 2 3 4 5 6 7 8 9 10 11 12 13 14 15 16 17 18
000
FTUS43 KMPX 181700 RRA
TAFEAU
TAF
KEAU 181744Z 1818/1918 13007KT P6SM OVC007
     FM181900 14008KT P6SM FEW005
     FM182300 16010KT P6SM SCT060 SCT200
     FM190800 17014KT P6SM FEW030 BKN050=

USA.gov is the U.S. government's official web portal to all federal, state and local government web resources and services.